sensor_id;sensor_type;location;lat;lon;timestamp;temperature;humidity
2130;DHT22;1071;52.544;13.374;2024-02-23T00:01:47;13.00;99.90
2130;DHT22;1071;52.544;13.374;2024-02-23T00:04:15;13.00;99.90
2130;DHT22;1071;52.544;13.374;2024-02-23T00:06:44;12.90;99.90
2130;DHT22;1071;52.544;13.374;2024-02-23T00:09:20;12.90;99.90
2130;DHT22;1071;52.544;13.374;2024-02-23T00:11:47;13.00;99.90
2130;DHT22;1071;52.544;13.374;2024-02-23T00:14:15;13.00;99.90
2130;DHT22;1071;52.544;13.374;2024-02-23T00:16:44;13.00;99.90
2130;DHT22;1071;52.544;13.374;2024-02-23T00:19:15;13.00;99.90
2130;DHT22;1071;52.544;13.374;2024-02-23T00:21:45;12.90;99.90
2130;DHT22;1071;52.544;13.374;2024-02-23T00:24:19;12.90;99.90
2130;DHT22;1071;52.544;13.374;2024-02-23T00:26:48;12.90;99.90
2130;DHT22;1071;52.544;13.374;2024-02-23T00:29:16;12.90;99.90
2130;DHT22;1071;52.544;13.374;2024-02-23T00:31:43;12.90;99.90
2130;DHT22;1071;52.544;13.374;2024-02-23T00:34:15;13.00;99.90
2130;DHT22;1071;52.544;13.374;2024-02-23T00:36:42;12.90;99.90
2130;DHT22;1071;52.544;13.374;2024-02-23T00:39:12;13.00;99.90
2130;DHT22;1071;52.544;13.374;2024-02-23T00:41:40;13.00;99.90
2130;DHT22;1071;52.544;13.374;2024-02-23T00:44:16;13.00;99.90
2130;DHT22;1071;52.544;13.374;2024-02-23T00:46:43;13.00;99.90
2130;DHT22;1071;52.544;13.374;2024-02-23T00:49:10;12.90;99.90
2130;DHT22;1071;52.544;13.374;2024-02-23T00:51:37;12.90;99.90
2130;DHT22;1071;52.544;13.374;2024-02-23T00:54:04;12.90;99.90
2130;DHT22;1071;52.544;13.374;2024-02-23T00:56:31;13.00;99.90
2130;DHT22;1071;52.544;13.374;2024-02-23T00:59:00;13.00;99.90
2130;DHT22;1071;52.544;13.374;2024-02-23T01:01:27;13.00;99.90
2130;DHT22;1071;52.544;13.374;2024-02-23T01:03:54;13.00;99.90
2130;DHT22;1071;52.544;13.374;2024-02-23T01:06:21;13.00;99.90
2130;DHT22;1071;52.544;13.374;2024-02-23T01:08:48;13.10;99.90
2130;DHT22;1071;52.544;13.374;2024-02-23T01:11:18;13.00;99.90
2130;DHT22;1071;52.544;13.374;2024-02-23T01:13:46;13.00;99.90
2130;DHT22;1071;52.544;13.374;2024-02-23T01:16:15;13.00;99.90
2130;DHT22;1071;52.544;13.374;2024-02-23T01:18:42;13.10;99.90
2130;DHT22;1071;52.544;13.374;2024-02-23T01:21:09;13.10;99.90
2130;DHT22;1071;52.544;13.374;2024-02-23T01:23:37;13.10;99.90
2130;DHT22;1071;52.544;13.374;2024-02-23T01:26:04;13.00;99.90
2130;DHT22;1071;52.544;13.374;2024-02-23T01:28:31;12.90;99.90
2130;DHT22;1071;52.544;13.374;2024-02-23T01:30:58;12.90;99.90
2130;DHT22;1071;52.544;13.374;2024-02-23T01:33:27;12.90;99.90
2130;DHT22;1071;52.544;13.374;2024-02-23T01:35:54;12.90;99.90
2130;DHT22;1071;52.544;13.374;2024-02-23T01:38:23;12.90;99.90
2130;DHT22;1071;52.544;13.374;2024-02-23T01:40:54;12.90;99.90
2130;DHT22;1071;52.544;13.374;2024-02-23T01:43:24;12.90;99.90
2130;DHT22;1071;52.544;13.374;2024-02-23T01:45:51;12.90;99.90
2130;DHT22;1071;52.544;13.374;2024-02-23T01:48:19;13.00;99.90
2130;DHT22;1071;52.544;13.374;2024-02-23T01:50:47;13.00;99.90
2130;DHT22;1071;52.544;13.374;2024-02-23T01:53:14;13.00;99.90
2130;DHT22;1071;52.544;13.374;2024-02-23T01:55:45;13.00;99.90
2130;DHT22;1071;52.544;13.374;2024-02-23T01:58:13;13.10;99.90
2130;DHT22;1071;52.544;13.374;2024-02-23T02:00:44;13.10;99.90
2130;DHT22;1071;52.544;13.374;2024-02-23T02:03:11;13.10;99.90
2130;DHT22;1071;52.544;13.374;2024-02-23T02:05:39;13.10;99.90
2130;DHT22;1071;52.544;13.374;2024-02-23T02:08:07;13.10;99.90
2130;DHT22;1071;52.544;13.374;2024-02-23T02:10:34;13.20;99.90
2130;DHT22;1071;52.544;13.374;2024-02-23T02:13:02;13.10;99.90
2130;DHT22;1071;52.544;13.374;2024-02-23T02:15:30;13.30;99.90
2130;DHT22;1071;52.544;13.374;2024-02-23T02:18:03;13.30;99.90
2130;DHT22;1071;52.544;13.374;2024-02-23T02:20:33;13.30;99.90
2130;DHT22;1071;52.544;13.374;2024-02-23T02:23:03;13.30;99.90
2130;DHT22;1071;52.544;13.374;2024-02-23T02:25:34;13.40;99.90
2130;DHT22;1071;52.544;13.374;2024-02-23T02:28:01;13.40;99.90
2130;DHT22;1071;52.544;13.374;2024-02-23T02:30:28;13.50;99.90
2130;DHT22;1071;52.544;13.374;2024-02-23T02:32:57;13.50;99.90
2130;DHT22;1071;52.544;13.374;2024-02-23T02:35:24;13.60;99.90
2130;DHT22;1071;52.544;13.374;2024-02-23T02:37:51;13.60;99.90
2130;DHT22;1071;52.544;13.374;2024-02-23T02:40:18;13.50;99.90
2130;DHT22;1071;52.544;13.374;2024-02-23T02:42:47;13.50;99.90
2130;DHT22;1071;52.544;13.374;2024-02-23T02:45:14;13.50;99.90
2130;DHT22;1071;52.544;13.374;2024-02-23T02:47:42;13.50;99.90
2130;DHT22;1071;52.544;13.374;2024-02-23T02:50:11;13.40;99.90
2130;DHT22;1071;52.544;13.374;2024-02-23T02:52:38;13.30;99.90
2130;DHT22;1071;52.544;13.374;2024-02-23T02:55:06;13.30;99.90
2130;DHT22;1071;52.544;13.374;2024-02-23T02:57:35;13.20;99.90
2130;DHT22;1071;52.544;13.374;2024-02-23T03:00:10;13.30;99.90
2130;DHT22;1071;52.544;13.374;2024-02-23T03:02:40;13.30;99.90
2130;DHT22;1071;52.544;13.374;2024-02-23T03:05:10;13.30;99.90
2130;DHT22;1071;52.544;13.374;2024-02-23T03:07:37;13.20;99.90
2130;DHT22;1071;52.544;13.374;2024-02-23T03:10:06;13.10;99.90
2130;DHT22;1071;52.544;13.374;2024-02-23T03:12:33;13.10;99.90
2130;DHT22;1071;52.544;13.374;2024-02-23T03:15:00;13.20;99.90
2130;DHT22;1071;52.544;13.374;2024-02-23T03:17:29;13.10;99.90
2130;DHT22;1071;52.544;13.374;2024-02-23T03:19:56;13.10;99.90
2130;DHT22;1071;52.544;13.374;2024-02-23T03:22:24;13.10;99.90
2130;DHT22;1071;52.544;13.374;2024-02-23T03:24:51;13.00;99.90
2130;DHT22;1071;52.544;13.374;2024-02-23T03:27:28;12.90;99.90
2130;DHT22;1071;52.544;13.374;2024-02-23T03:29:56;12.90;99.90
2130;DHT22;1071;52.544;13.374;2024-02-23T03:32:23;12.90;99.90
2130;DHT22;1071;52.544;13.374;2024-02-23T03:34:51;12.80;99.90
2130;DHT22;1071;52.544;13.374;2024-02-23T03:37:18;12.80;99.90
2130;DHT22;1071;52.544;13.374;2024-02-23T03:39:45;12.70;99.90
2130;DHT22;1071;52.544;13.374;2024-02-23T03:42:13;12.70;99.90
2130;DHT22;1071;52.544;13.374;2024-02-23T03:44:41;12.70;99.90
2130;DHT22;1071;52.544;13.374;2024-02-23T03:47:08;12.70;99.90
2130;DHT22;1071;52.544;13.374;2024-02-23T03:49:38;12.70;99.90
2130;DHT22;1071;52.544;13.374;2024-02-23T03:52:07;12.60;99.90
2130;DHT22;1071;52.544;13.374;2024-02-23T03:54:34;12.60;99.90
2130;DHT22;1071;52.544;13.374;2024-02-23T03:57:01;12.60;99.90
2130;DHT22;1071;52.544;13.374;2024-02-23T03:59:28;12.50;99.90
2130;DHT22;1071;52.544;13.374;2024-02-23T04:01:57;12.50;99.90
2130;DHT22;1071;52.544;13.374;2024-02-23T04:04:27;12.50;99.90
2130;DHT22;1071;52.544;13.374;2024-02-23T04:06:54;12.60;99.90
2130;DHT22;1071;52.544;13.374;2024-02-23T04:09:25;12.50;99.90
2130;DHT22;1071;52.544;13.374;2024-02-23T04:11:52;12.50;99.90
2130;DHT22;1071;52.544;13.374;2024-02-23T04:14:19;12.50;99.90
2130;DHT22;1071;52.544;13.374;2024-02-23T04:16:46;12.60;99.90
2130;DHT22;1071;52.544;13.374;2024-02-23T04:19:14;12.60;99.90
2130;DHT22;1071;52.544;13.374;2024-02-23T04:21:43;12.60;99.90
2130;DHT22;1071;52.544;13.374;2024-02-23T04:24:10;12.60;99.90
2130;DHT22;1071;52.544;13.374;2024-02-23T04:26:38;12.70;99.90
2130;DHT22;1071;52.544;13.374;2024-02-23T04:29:05;12.70;99.90
2130;DHT22;1071;52.544;13.374;2024-02-23T04:31:36;12.60;99.90
2130;DHT22;1071;52.544;13.374;2024-02-23T04:34:06;12.60;99.90
2130;DHT22;1071;52.544;13.374;2024-02-23T04:36:34;12.60;99.90
2130;DHT22;1071;52.544;13.374;2024-02-23T04:39:01;12.60;99.90
2130;DHT22;1071;52.544;13.374;2024-02-23T04:41:28;12.50;99.90
2130;DHT22;1071;52.544;13.374;2024-02-23T04:43:56;12.40;99.90
2130;DHT22;1071;52.544;13.374;2024-02-23T04:46:28;12.40;99.90
2130;DHT22;1071;52.544;13.374;2024-02-23T04:48:55;12.30;99.90
2130;DHT22;1071;52.544;13.374;2024-02-23T04:51:22;12.30;99.90
2130;DHT22;1071;52.544;13.374;2024-02-23T04:53:49;12.30;99.90
2130;DHT22;1071;52.544;13.374;2024-02-23T04:56:16;12.30;99.90
2130;DHT22;1071;52.544;13.374;2024-02-23T04:58:44;12.40;99.90
2130;DHT22;1071;52.544;13.374;2024-02-23T05:01:12;12.40;99.90
2130;DHT22;1071;52.544;13.374;2024-02-23T05:03:39;12.30;99.90
2130;DHT22;1071;52.544;13.374;2024-02-23T05:06:07;12.40;99.90
2130;DHT22;1071;52.544;13.374;2024-02-23T05:08:34;12.30;99.90
2130;DHT22;1071;52.544;13.374;2024-02-23T05:11:01;12.30;99.90
2130;DHT22;1071;52.544;13.374;2024-02-23T05:13:29;12.40;99.90
2130;DHT22;1071;52.544;13.374;2024-02-23T05:15:56;12.40;99.90
2130;DHT22;1071;52.544;13.374;2024-02-23T05:18:38;12.40;99.90
2130;DHT22;1071;52.544;13.374;2024-02-23T05:21:06;12.40;99.90
2130;DHT22;1071;52.544;13.374;2024-02-23T05:23:35;12.40;99.90
2130;DHT22;1071;52.544;13.374;2024-02-23T05:26:02;12.30;99.90
2130;DHT22;1071;52.544;13.374;2024-02-23T05:28:32;12.40;99.90
2130;DHT22;1071;52.544;13.374;2024-02-23T05:30:59;12.40;99.90
2130;DHT22;1071;52.544;13.374;2024-02-23T05:33:29;12.30;99.90
2130;DHT22;1071;52.544;13.374;2024-02-23T05:35:56;12.30;99.90
2130;DHT22;1071;52.544;13.374;2024-02-23T05:38:29;12.30;99.90
2130;DHT22;1071;52.544;13.374;2024-02-23T05:40:57;12.20;99.90
2130;DHT22;1071;52.544;13.374;2024-02-23T05:43:24;12.20;99.90
2130;DHT22;1071;52.544;13.374;2024-02-23T05:45:51;12.10;99.90
2130;DHT22;1071;52.544;13.374;2024-02-23T05:48:19;12.00;99.90
2130;DHT22;1071;52.544;13.374;2024-02-23T05:50:50;12.00;99.90
2130;DHT22;1071;52.544;13.374;2024-02-23T05:53:23;11.90;99.90
2130;DHT22;1071;52.544;13.374;2024-02-23T05:56:04;11.90;99.90
2130;DHT22;1071;52.544;13.374;2024-02-23T05:58:32;11.80;99.90
2130;DHT22;1071;52.544;13.374;2024-02-23T06:01:04;11.70;99.90
2130;DHT22;1071;52.544;13.374;2024-02-23T06:03:31;11.70;99.90
2130;DHT22;1071;52.544;13.374;2024-02-23T06:05:59;11.70;99.90
2130;DHT22;1071;52.544;13.374;2024-02-23T06:08:26;11.70;99.90
2130;DHT22;1071;52.544;13.374;2024-02-23T06:10:53;11.70;99.90
2130;DHT22;1071;52.544;13.374;2024-02-23T06:13:23;11.70;99.90
2130;DHT22;1071;52.544;13.374;2024-02-23T06:15:55;11.60;99.90
2130;DHT22;1071;52.544;13.374;2024-02-23T06:18:22;11.60;99.90
2130;DHT22;1071;52.544;13.374;2024-02-23T06:20:55;11.60;99.90
2130;DHT22;1071;52.544;13.374;2024-02-23T06:23:26;11.60;99.90
2130;DHT22;1071;52.544;13.374;2024-02-23T06:25:53;11.60;99.90
2130;DHT22;1071;52.544;13.374;2024-02-23T06:28:20;11.60;99.90
2130;DHT22;1071;52.544;13.374;2024-02-23T06:30:48;11.60;99.90
2130;DHT22;1071;52.544;13.374;2024-02-23T06:33:30;11.60;99.90
2130;DHT22;1071;52.544;13.374;2024-02-23T06:35:59;11.50;99.90
2130;DHT22;1071;52.544;13.374;2024-02-23T06:38:31;11.50;99.90
2130;DHT22;1071;52.544;13.374;2024-02-23T06:40:58;11.50;99.90
2130;DHT22;1071;52.544;13.374;2024-02-23T06:43:32;11.50;99.90
2130;DHT22;1071;52.544;13.374;2024-02-23T06:46:05;11.50;99.90
2130;DHT22;1071;52.544;13.374;2024-02-23T06:48:34;11.50;99.90
2130;DHT22;1071;52.544;13.374;2024-02-23T06:51:01;11.60;99.90
2130;DHT22;1071;52.544;13.374;2024-02-23T06:53:28;11.60;99.90
2130;DHT22;1071;52.544;13.374;2024-02-23T06:55:57;11.60;99.90
2130;DHT22;1071;52.544;13.374;2024-02-23T06:58:26;11.70;99.90
2130;DHT22;1071;52.544;13.374;2024-02-23T07:00:53;11.60;99.90
2130;DHT22;1071;52.544;13.374;2024-02-23T07:03:22;11.60;99.90
2130;DHT22;1071;52.544;13.374;2024-02-23T07:05:51;11.60;99.90
2130;DHT22;1071;52.544;13.374;2024-02-23T07:08:18;11.60;99.90
2130;DHT22;1071;52.544;13.374;2024-02-23T07:10:46;11.60;99.90
2130;DHT22;1071;52.544;13.374;2024-02-23T07:13:14;11.70;99.90
2130;DHT22;1071;52.544;13.374;2024-02-23T07:15:42;11.70;99.90
2130;DHT22;1071;52.544;13.374;2024-02-23T07:18:09;11.60;99.90
2130;DHT22;1071;52.544;13.374;2024-02-23T07:20:41;11.60;99.90
2130;DHT22;1071;52.544;13.374;2024-02-23T07:23:08;11.70;99.90
2130;DHT22;1071;52.544;13.374;2024-02-23T07:25:35;11.70;99.90
2130;DHT22;1071;52.544;13.374;2024-02-23T07:28:05;11.60;99.90
2130;DHT22;1071;52.544;13.374;2024-02-23T07:30:35;11.60;99.90
2130;DHT22;1071;52.544;13.374;2024-02-23T07:33:05;11.60;99.90
2130;DHT22;1071;52.544;13.374;2024-02-23T07:35:35;11.60;99.90
2130;DHT22;1071;52.544;13.374;2024-02-23T07:38:04;11.70;99.90
2130;DHT22;1071;52.544;13.374;2024-02-23T07:40:37;11.70;99.90
2130;DHT22;1071;52.544;13.374;2024-02-23T07:43:05;11.70;99.90
2130;DHT22;1071;52.544;13.374;2024-02-23T07:45:32;11.70;99.90
2130;DHT22;1071;52.544;13.374;2024-02-23T07:48:06;11.70;99.90
2130;DHT22;1071;52.544;13.374;2024-02-23T07:50:34;11.70;99.90
2130;DHT22;1071;52.544;13.374;2024-02-23T07:53:03;11.70;99.90
2130;DHT22;1071;52.544;13.374;2024-02-23T07:55:33;11.70;99.90
2130;DHT22;1071;52.544;13.374;2024-02-23T07:58:00;11.70;99.90
2130;DHT22;1071;52.544;13.374;2024-02-23T08:00:27;11.70;99.90
2130;DHT22;1071;52.544;13.374;2024-02-23T08:03:06;11.70;99.90
2130;DHT22;1071;52.544;13.374;2024-02-23T08:05:33;11.70;99.90
2130;DHT22;1071;52.544;13.374;2024-02-23T08:08:02;11.70;99.90
2130;DHT22;1071;52.544;13.374;2024-02-23T08:10:29;11.70;99.90
2130;DHT22;1071;52.544;13.374;2024-02-23T08:13:00;11.70;99.90
2130;DHT22;1071;52.544;13.374;2024-02-23T08:15:30;11.70;99.90
2130;DHT22;1071;52.544;13.374;2024-02-23T08:18:02;11.70;99.90
2130;DHT22;1071;52.544;13.374;2024-02-23T08:20:31;11.70;99.90
2130;DHT22;1071;52.544;13.374;2024-02-23T08:22:58;11.70;99.90
2130;DHT22;1071;52.544;13.374;2024-02-23T08:25:25;11.70;99.90
2130;DHT22;1071;52.544;13.374;2024-02-23T08:27:54;11.80;99.90
2130;DHT22;1071;52.544;13.374;2024-02-23T08:30:23;11.80;99.90
2130;DHT22;1071;52.544;13.374;2024-02-23T08:32:50;11.90;99.90
2130;DHT22;1071;52.544;13.374;2024-02-23T08:35:17;11.90;99.90
2130;DHT22;1071;52.544;13.374;2024-02-23T08:37:46;12.00;99.90
2130;DHT22;1071;52.544;13.374;2024-02-23T08:40:15;12.00;99.90
2130;DHT22;1071;52.544;13.374;2024-02-23T08:42:45;12.10;99.90
2130;DHT22;1071;52.544;13.374;2024-02-23T08:45:15;12.00;99.90
2130;DHT22;1071;52.544;13.374;2024-02-23T08:47:42;12.00;99.90
2130;DHT22;1071;52.544;13.374;2024-02-23T08:50:13;12.00;99.90
2130;DHT22;1071;52.544;13.374;2024-02-23T08:52:42;11.90;99.90
2130;DHT22;1071;52.544;13.374;2024-02-23T08:55:12;11.90;99.90
2130;DHT22;1071;52.544;13.374;2024-02-23T08:57:40;11.90;99.90
2130;DHT22;1071;52.544;13.374;2024-02-23T09:00:07;11.90;99.90
2130;DHT22;1071;52.544;13.374;2024-02-23T09:02:37;11.90;99.90
2130;DHT22;1071;52.544;13.374;2024-02-23T09:05:07;11.90;99.90
2130;DHT22;1071;52.544;13.374;2024-02-23T09:07:38;11.90;99.90
2130;DHT22;1071;52.544;13.374;2024-02-23T09:10:05;11.90;99.90
2130;DHT22;1071;52.544;13.374;2024-02-23T09:12:34;11.90;99.40
2130;DHT22;1071;52.544;13.374;2024-02-23T09:15:01;11.90;99.40
2130;DHT22;1071;52.544;13.374;2024-02-23T09:17:28;11.90;99.40
2130;DHT22;1071;52.544;13.374;2024-02-23T09:19:55;11.90;98.90
2130;DHT22;1071;52.544;13.374;2024-02-23T09:22:22;12.00;99.20
2130;DHT22;1071;52.544;13.374;2024-02-23T09:24:55;12.00;99.10
2130;DHT22;1071;52.544;13.374;2024-02-23T09:27:23;12.00;99.10
2130;DHT22;1071;52.544;13.374;2024-02-23T09:30:08;12.00;98.50
2130;DHT22;1071;52.544;13.374;2024-02-23T09:32:40;12.00;98.30
2130;DHT22;1071;52.544;13.374;2024-02-23T09:35:07;12.00;98.50
2130;DHT22;1071;52.544;13.374;2024-02-23T09:37:40;12.10;98.50
2130;DHT22;1071;52.544;13.374;2024-02-23T09:40:08;12.10;98.50
2130;DHT22;1071;52.544;13.374;2024-02-23T09:42:35;12.20;98.00
2130;DHT22;1071;52.544;13.374;2024-02-23T09:45:09;12.10;97.70
2130;DHT22;1071;52.544;13.374;2024-02-23T09:47:38;12.10;97.40
2130;DHT22;1071;52.544;13.374;2024-02-23T09:50:09;12.10;95.80
2130;DHT22;1071;52.544;13.374;2024-02-23T09:52:36;12.00;95.90
2130;DHT22;1071;52.544;13.374;2024-02-23T09:55:06;12.10;96.20
2130;DHT22;1071;52.544;13.374;2024-02-23T09:57:34;12.10;96.30
2130;DHT22;1071;52.544;13.374;2024-02-23T10:00:02;12.10;96.10
2130;DHT22;1071;52.544;13.374;2024-02-23T10:02:34;12.10;96.20
2130;DHT22;1071;52.544;13.374;2024-02-23T10:05:01;12.10;95.90
2130;DHT22;1071;52.544;13.374;2024-02-23T10:07:29;12.10;96.30
2130;DHT22;1071;52.544;13.374;2024-02-23T10:09:57;12.20;96.40
2130;DHT22;1071;52.544;13.374;2024-02-23T10:12:25;12.30;95.90
2130;DHT22;1071;52.544;13.374;2024-02-23T10:14:56;12.30;96.00
2130;DHT22;1071;52.544;13.374;2024-02-23T10:17:30;12.30;96.30
2130;DHT22;1071;52.544;13.374;2024-02-23T10:20:05;12.50;96.60
2130;DHT22;1071;52.544;13.374;2024-02-23T10:22:34;12.40;96.70
2130;DHT22;1071;52.544;13.374;2024-02-23T10:25:02;12.30;96.70
2130;DHT22;1071;52.544;13.374;2024-02-23T10:27:30;12.40;96.80
2130;DHT22;1071;52.544;13.374;2024-02-23T10:30:00;12.40;97.00
2130;DHT22;1071;52.544;13.374;2024-02-23T10:32:32;12.40;97.20
2130;DHT22;1071;52.544;13.374;2024-02-23T10:35:03;12.50;97.60
2130;DHT22;1071;52.544;13.374;2024-02-23T10:37:31;12.50;97.10
2130;DHT22;1071;52.544;13.374;2024-02-23T10:40:00;12.50;97.20
2130;DHT22;1071;52.544;13.374;2024-02-23T10:42:33;12.50;96.80
2130;DHT22;1071;52.544;13.374;2024-02-23T10:45:07;12.50;96.70
2130;DHT22;1071;52.544;13.374;2024-02-23T10:47:48;12.50;96.60
2130;DHT22;1071;52.544;13.374;2024-02-23T10:50:22;12.50;95.90
2130;DHT22;1071;52.544;13.374;2024-02-23T10:52:52;12.50;95.90
2130;DHT22;1071;52.544;13.374;2024-02-23T10:55:24;12.60;95.70
2130;DHT22;1071;52.544;13.374;2024-02-23T10:57:58;12.60;95.60
2130;DHT22;1071;52.544;13.374;2024-02-23T11:00:25;12.60;95.60
2130;DHT22;1071;52.544;13.374;2024-02-23T11:02:55;12.70;95.50
2130;DHT22;1071;52.544;13.374;2024-02-23T11:05:28;12.70;94.50
2130;DHT22;1071;52.544;13.374;2024-02-23T11:07:56;12.80;94.40
2130;DHT22;1071;52.544;13.374;2024-02-23T11:10:23;12.90;94.20
2130;DHT22;1071;52.544;13.374;2024-02-23T11:12:57;12.90;94.10
2130;DHT22;1071;52.544;13.374;2024-02-23T11:15:29;12.90;94.60
2130;DHT22;1071;52.544;13.374;2024-02-23T11:18:00;12.90;94.80
2130;DHT22;1071;52.544;13.374;2024-02-23T11:20:40;12.90;94.70
2130;DHT22;1071;52.544;13.374;2024-02-23T11:23:16;12.80;94.90
2130;DHT22;1071;52.544;13.374;2024-02-23T11:25:43;12.70;95.00
2130;DHT22;1071;52.544;13.374;2024-02-23T11:28:22;12.70;94.90
2130;DHT22;1071;52.544;13.374;2024-02-23T11:30:50;12.70;94.80
2130;DHT22;1071;52.544;13.374;2024-02-23T11:33:27;12.60;94.40
2130;DHT22;1071;52.544;13.374;2024-02-23T11:36:10;12.60;94.80
2130;DHT22;1071;52.544;13.374;2024-02-23T11:38:39;12.60;95.00
2130;DHT22;1071;52.544;13.374;2024-02-23T11:41:08;12.60;95.30
2130;DHT22;1071;52.544;13.374;2024-02-23T11:43:43;12.70;95.00
2130;DHT22;1071;52.544;13.374;2024-02-23T11:46:12;12.80;94.40
2130;DHT22;1071;52.544;13.374;2024-02-23T11:48:41;12.80;94.80
2130;DHT22;1071;52.544;13.374;2024-02-23T11:51:15;12.80;95.20
2130;DHT22;1071;52.544;13.374;2024-02-23T11:53:44;12.80;95.00
2130;DHT22;1071;52.544;13.374;2024-02-23T11:56:11;12.90;95.20
2130;DHT22;1071;52.544;13.374;2024-02-23T11:58:39;12.90;94.70
2130;DHT22;1071;52.544;13.374;2024-02-23T12:01:13;12.90;94.00
2130;DHT22;1071;52.544;13.374;2024-02-23T12:03:41;12.90;93.80
2130;DHT22;1071;52.544;13.374;2024-02-23T12:06:14;12.90;94.00
2130;DHT22;1071;52.544;13.374;2024-02-23T12:08:45;12.90;94.20
2130;DHT22;1071;52.544;13.374;2024-02-23T12:11:13;13.00;94.40
2130;DHT22;1071;52.544;13.374;2024-02-23T12:13:44;13.00;94.40
2130;DHT22;1071;52.544;13.374;2024-02-23T12:16:14;13.00;94.40
2130;DHT22;1071;52.544;13.374;2024-02-23T12:18:42;13.10;93.90
2130;DHT22;1071;52.544;13.374;2024-02-23T12:21:23;13.10;94.00
2130;DHT22;1071;52.544;13.374;2024-02-23T12:23:51;13.20;94.10
2130;DHT22;1071;52.544;13.374;2024-02-23T12:26:21;13.20;93.50
2130;DHT22;1071;52.544;13.374;2024-02-23T12:28:51;13.10;93.50
2130;DHT22;1071;52.544;13.374;2024-02-23T12:31:23;13.10;93.80
2130;DHT22;1071;52.544;13.374;2024-02-23T12:33:56;13.10;93.90
2130;DHT22;1071;52.544;13.374;2024-02-23T12:36:25;13.10;93.90
2130;DHT22;1071;52.544;13.374;2024-02-23T12:38:52;13.00;93.70
2130;DHT22;1071;52.544;13.374;2024-02-23T12:41:19;13.00;93.70
2130;DHT22;1071;52.544;13.374;2024-02-23T12:43:53;13.10;93.70
2130;DHT22;1071;52.544;13.374;2024-02-23T12:46:20;13.00;93.30
2130;DHT22;1071;52.544;13.374;2024-02-23T12:48:52;13.00;93.40
2130;DHT22;1071;52.544;13.374;2024-02-23T12:51:25;13.00;93.80
2130;DHT22;1071;52.544;13.374;2024-02-23T12:54:04;13.10;93.60
2130;DHT22;1071;52.544;13.374;2024-02-23T12:56:31;13.10;93.90
2130;DHT22;1071;52.544;13.374;2024-02-23T12:59:01;13.10;93.50
2130;DHT22;1071;52.544;13.374;2024-02-23T13:01:28;13.10;93.40
2130;DHT22;1071;52.544;13.374;2024-02-23T13:03:57;13.00;93.30
2130;DHT22;1071;52.544;13.374;2024-02-23T13:06:28;13.00;93.60
2130;DHT22;1071;52.544;13.374;2024-02-23T13:08:58;13.10;93.20
2130;DHT22;1071;52.544;13.374;2024-02-23T13:11:27;13.10;92.90
2130;DHT22;1071;52.544;13.374;2024-02-23T13:13:54;13.00;93.20
2130;DHT22;1071;52.544;13.374;2024-02-23T13:16:24;12.90;93.20
2130;DHT22;1071;52.544;13.374;2024-02-23T13:18:55;12.90;93.20
2130;DHT22;1071;52.544;13.374;2024-02-23T13:21:30;12.70;92.80
2130;DHT22;1071;52.544;13.374;2024-02-23T13:23:58;12.60;93.10
2130;DHT22;1071;52.544;13.374;2024-02-23T13:26:25;12.60;93.50
2130;DHT22;1071;52.544;13.374;2024-02-23T13:28:52;12.50;93.70
2130;DHT22;1071;52.544;13.374;2024-02-23T13:31:19;12.60;94.00
2130;DHT22;1071;52.544;13.374;2024-02-23T13:33:46;12.60;94.10
2130;DHT22;1071;52.544;13.374;2024-02-23T13:36:13;12.60;93.10
2130;DHT22;1071;52.544;13.374;2024-02-23T13:38:44;12.60;93.50
2130;DHT22;1071;52.544;13.374;2024-02-23T13:41:11;12.60;93.10
2130;DHT22;1071;52.544;13.374;2024-02-23T13:43:39;12.60;93.40
2130;DHT22;1071;52.544;13.374;2024-02-23T13:46:09;12.60;93.70
2130;DHT22;1071;52.544;13.374;2024-02-23T13:48:36;12.60;94.10
2130;DHT22;1071;52.544;13.374;2024-02-23T13:51:04;12.70;94.40
2130;DHT22;1071;52.544;13.374;2024-02-23T13:53:34;12.70;93.70
2130;DHT22;1071;52.544;13.374;2024-02-23T13:56:06;12.60;93.20
2130;DHT22;1071;52.544;13.374;2024-02-23T13:58:34;12.70;93.50
2130;DHT22;1071;52.544;13.374;2024-02-23T14:01:01;12.60;93.50
2130;DHT22;1071;52.544;13.374;2024-02-23T14:03:28;12.60;93.80
2130;DHT22;1071;52.544;13.374;2024-02-23T14:05:55;12.60;93.60
2130;DHT22;1071;52.544;13.374;2024-02-23T14:08:26;12.50;93.50
2130;DHT22;1071;52.544;13.374;2024-02-23T14:10:53;12.60;93.80
2130;DHT22;1071;52.544;13.374;2024-02-23T14:13:22;12.60;93.80
2130;DHT22;1071;52.544;13.374;2024-02-23T14:16:08;12.50;93.90
2130;DHT22;1071;52.544;13.374;2024-02-23T14:18:55;12.40;93.70
2130;DHT22;1071;52.544;13.374;2024-02-23T14:21:33;12.40;94.20
2130;DHT22;1071;52.544;13.374;2024-02-23T14:24:03;12.40;94.20
2130;DHT22;1071;52.544;13.374;2024-02-23T14:26:32;12.50;94.50
2130;DHT22;1071;52.544;13.374;2024-02-23T14:29:03;12.40;93.70
2130;DHT22;1071;52.544;13.374;2024-02-23T14:31:30;12.40;93.80
2130;DHT22;1071;52.544;13.374;2024-02-23T14:33:57;12.40;93.40
2130;DHT22;1071;52.544;13.374;2024-02-23T14:36:24;12.40;93.60
2130;DHT22;1071;52.544;13.374;2024-02-23T14:38:52;12.30;93.30
2130;DHT22;1071;52.544;13.374;2024-02-23T14:41:20;12.30;93.40
2130;DHT22;1071;52.544;13.374;2024-02-23T14:44:56;12.30;92.90
2130;DHT22;1071;52.544;13.374;2024-02-23T14:46:42;12.30;92.90
2130;DHT22;1071;52.544;13.374;2024-02-23T14:49:10;12.30;93.10
2130;DHT22;1071;52.544;13.374;2024-02-23T14:51:37;12.40;93.30
2130;DHT22;1071;52.544;13.374;2024-02-23T14:54:07;12.40;93.10
2130;DHT22;1071;52.544;13.374;2024-02-23T14:56:34;12.30;93.10
2130;DHT22;1071;52.544;13.374;2024-02-23T14:59:02;12.30;92.90
2130;DHT22;1071;52.544;13.374;2024-02-23T15:01:29;12.20;92.90
2130;DHT22;1071;52.544;13.374;2024-02-23T15:03:59;12.20;93.10
2130;DHT22;1071;52.544;13.374;2024-02-23T15:06:32;12.30;93.20
2130;DHT22;1071;52.544;13.374;2024-02-23T15:09:03;12.30;93.30
2130;DHT22;1071;52.544;13.374;2024-02-23T15:11:30;12.30;93.50
2130;DHT22;1071;52.544;13.374;2024-02-23T15:14:02;12.20;93.50
2130;DHT22;1071;52.544;13.374;2024-02-23T15:16:32;12.20;93.60
2130;DHT22;1071;52.544;13.374;2024-02-23T15:19:04;12.20;93.70
2130;DHT22;1071;52.544;13.374;2024-02-23T15:21:31;12.20;94.00
2130;DHT22;1071;52.544;13.374;2024-02-23T15:24:03;12.20;94.00
2130;DHT22;1071;52.544;13.374;2024-02-23T15:26:30;12.20;94.10
2130;DHT22;1071;52.544;13.374;2024-02-23T15:29:00;12.30;93.70
2130;DHT22;1071;52.544;13.374;2024-02-23T15:31:36;12.20;93.80
2130;DHT22;1071;52.544;13.374;2024-02-23T15:34:06;12.30;94.00
2130;DHT22;1071;52.544;13.374;2024-02-23T15:36:33;12.20;94.20
2130;DHT22;1071;52.544;13.374;2024-02-23T15:39:04;12.20;94.20
2130;DHT22;1071;52.544;13.374;2024-02-23T15:41:32;12.20;94.30
2130;DHT22;1071;52.544;13.374;2024-02-23T15:43:59;12.30;94.50
2130;DHT22;1071;52.544;13.374;2024-02-23T15:46:32;12.30;94.70
2130;DHT22;1071;52.544;13.374;2024-02-23T15:49:03;12.30;94.50
2130;DHT22;1071;52.544;13.374;2024-02-23T15:51:33;12.30;94.60
2130;DHT22;1071;52.544;13.374;2024-02-23T15:54:07;12.30;94.70
2130;DHT22;1071;52.544;13.374;2024-02-23T15:56:35;12.30;94.90
2130;DHT22;1071;52.544;13.374;2024-02-23T15:59:06;12.40;94.70